Time;durP1;ratioP1;P1;durP2;ratioP2;P2;SDS_P1;SDS_P2;PMS_P1;PMS_P2;Temp;Humidity;BMP_temperature;BMP_pressure;BME280_temperature;BME280_humidity;BME280_pressure;Samples;Min_cycle;Max_cycle;Signal;HPM_P1;HPM_P2
2021/04/20 00:00:50;;;;;;;54.55;39.35;;;6.70;84.80;;;;;;5064960;28;20088;-77
2021/04/20 00:03:16;;;;;;;51.35;39.55;;;6.70;85.10;;;;;;5065348;28;20028;-77
2021/04/20 00:05:42;;;;;;;64.88;41.40;;;6.60;85.30;;;;;;5048530;28;20092;-76
2021/04/20 00:08:07;;;;;;;51.05;39.70;;;6.60;85.30;;;;;;5044236;28;20033;-77
2021/04/20 00:10:33;;;;;;;48.25;40.08;;;6.60;85.60;;;;;;5044823;28;20045;-77
2021/04/20 00:13:00;;;;;;;48.28;37.08;;;6.60;85.80;;;;;;5060901;28;20106;-77
2021/04/20 00:15:31;;;;;;;48.75;37.45;;;6.50;85.80;;;;;;5066669;28;20101;-77
2021/04/20 00:17:59;;;;;;;47.03;38.00;;;6.60;85.60;;;;;;5061818;28;20090;-77
2021/04/20 00:20:25;;;;;;;50.88;38.45;;;6.60;85.50;;;;;;5067452;28;20045;-77
2021/04/20 00:22:52;;;;;;;47.78;36.95;;;6.60;85.50;;;;;;5059908;28;20063;-77
2021/04/20 00:25:19;;;;;;;48.35;38.60;;;6.60;85.30;;;;;;5064722;28;20039;-77
2021/04/20 00:27:45;;;;;;;49.92;38.22;;;6.60;85.20;;;;;;5065812;28;20043;-76
2021/04/20 00:30:12;;;;;;;50.85;41.90;;;6.70;85.10;;;;;;5065515;28;20044;-77
2021/04/20 00:32:38;;;;;;;51.38;41.03;;;6.70;85.30;;;;;;5057114;28;20110;-76
2021/04/20 00:35:05;;;;;;;59.92;44.38;;;6.80;85.50;;;;;;5046640;28;20055;-77
2021/04/20 00:37:31;;;;;;;58.00;43.28;;;6.80;85.70;;;;;;5048539;28;20025;-77
2021/04/20 00:39:57;;;;;;;65.13;45.35;;;6.90;85.80;;;;;;5046652;28;20048;-77
2021/04/20 00:42:23;;;;;;;61.67;44.90;;;7.00;85.90;;;;;;5047196;28;20443;-77
2021/04/20 00:44:48;;;;;;;59.65;44.08;;;7.00;86.00;;;;;;5051174;28;20032;-77
2021/04/20 00:47:14;;;;;;;70.78;46.05;;;7.00;86.00;;;;;;5056550;28;20079;-77
2021/04/20 00:49:40;;;;;;;71.65;47.63;;;7.10;86.00;;;;;;5060736;28;20077;-77
2021/04/20 00:52:06;;;;;;;109.85;50.88;;;7.10;86.00;;;;;;5055839;28;20131;-77
2021/04/20 00:54:32;;;;;;;65.78;45.85;;;7.10;86.20;;;;;;5069213;28;20115;-77
2021/04/20 00:56:57;;;;;;;77.13;49.90;;;7.10;86.40;;;;;;5063572;28;20045;-77
2021/04/20 00:59:23;;;;;;;73.97;46.90;;;7.10;86.50;;;;;;5063241;28;20044;-77
2021/04/20 01:01:50;;;;;;;58.97;47.92;;;7.10;86.50;;;;;;5063503;28;20106;-77
2021/04/20 01:04:16;;;;;;;50.90;43.58;;;7.10;86.70;;;;;;5047665;28;20464;-76
2021/04/20 01:06:44;;;;;;;71.03;46.65;;;7.10;86.70;;;;;;5057440;28;20025;-77
2021/04/20 01:09:10;;;;;;;86.05;46.25;;;7.10;86.90;;;;;;5062987;28;20123;-77
2021/04/20 01:11:39;;;;;;;67.15;44.03;;;7.10;86.80;;;;;;5064763;28;20044;-77
2021/04/20 01:14:06;;;;;;;57.92;42.92;;;7.00;87.10;;;;;;5051964;28;20034;-77
2021/04/20 01:16:33;;;;;;;74.25;48.10;;;6.90;87.00;;;;;;5051429;28;20041;-77
2021/04/20 01:19:01;;;;;;;158.95;46.60;;;6.90;87.20;;;;;;5042809;28;20144;-76
2021/04/20 01:21:27;;;;;;;61.40;42.72;;;6.70;87.30;;;;;;5056070;28;20041;-77
2021/04/20 01:24:08;;;;;;;62.72;43.85;;;6.60;87.60;;;;;;5060914;28;20518;-77
2021/04/20 01:26:44;;;;;;;49.67;44.40;;;6.60;87.70;;;;;;5059210;28;20032;-77
2021/04/20 01:29:11;;;;;;;67.97;48.45;;;6.50;87.90;;;;;;5048408;28;20096;-77
2021/04/20 01:31:40;;;;;;;52.55;45.53;;;6.50;88.20;;;;;;5041796;28;20099;-77
2021/04/20 01:34:06;;;;;;;71.07;48.08;;;6.60;88.30;;;;;;5042221;28;20033;-76
2021/04/20 01:36:33;;;;;;;48.53;43.40;;;6.60;88.30;;;;;;5038663;28;20036;-77
2021/04/20 01:38:59;;;;;;;50.05;44.47;;;6.60;88.30;;;;;;5041856;28;20049;-77
2021/04/20 01:41:27;;;;;;;77.25;45.78;;;6.60;88.40;;;;;;5054086;28;20584;-77
2021/04/20 01:43:54;;;;;;;127.15;47.95;;;6.60;88.50;;;;;;5057372;28;20457;-77
2021/04/20 01:46:20;;;;;;;54.63;44.72;;;6.50;88.30;;;;;;5056506;28;20029;-77
2021/04/20 01:48:48;;;;;;;125.22;47.78;;;6.50;88.60;;;;;;5066343;28;20033;-77
2021/04/20 01:51:14;;;;;;;214.50;53.03;;;6.40;88.50;;;;;;5060437;28;20029;-77
2021/04/20 01:53:41;;;;;;;90.63;48.95;;;6.20;88.40;;;;;;5063512;28;20029;-77
2021/04/20 01:56:08;;;;;;;172.07;54.72;;;6.10;89.10;;;;;;5063243;28;20045;-77
2021/04/20 01:58:36;;;;;;;73.90;50.88;;;6.10;89.40;;;;;;5066324;28;20037;-77
2021/04/20 02:01:17;;;;;;;70.53;53.05;;;6.10;89.50;;;;;;5054444;28;20041;-77
2021/04/20 02:03:45;;;;;;;54.90;49.35;;;6.00;89.60;;;;;;5058832;28;20056;-77
2021/04/20 02:06:13;;;;;;;60.95;52.03;;;6.00;89.80;;;;;;5058170;28;20508;-77
2021/04/20 02:08:39;;;;;;;71.63;49.78;;;6.10;89.80;;;;;;5060550;28;20127;-76
2021/04/20 02:11:06;;;;;;;55.65;50.08;;;6.00;89.50;;;;;;5061081;28;20076;-77
2021/04/20 02:13:32;;;;;;;58.00;51.80;;;6.10;89.80;;;;;;5055565;28;20108;-76
2021/04/20 02:16:01;;;;;;;67.68;52.70;;;6.10;89.90;;;;;;5062851;28;20131;-77
2021/04/20 02:18:27;;;;;;;135.40;56.72;;;6.10;90.00;;;;;;5044209;28;20032;-76
2021/04/20 02:20:53;;;;;;;54.78;48.75;;;6.20;90.00;;;;;;5058961;28;20047;-76
2021/04/20 02:23:21;;;;;;;54.42;48.55;;;6.10;89.80;;;;;;5055161;28;20036;-76
2021/04/20 02:25:47;;;;;;;55.13;46.15;;;6.20;89.70;;;;;;5059682;28;20426;-77
2021/04/20 02:28:14;;;;;;;44.55;39.75;;;6.10;89.50;;;;;;5052324;28;20045;-77
2021/04/20 02:30:40;;;;;;;61.38;43.63;;;6.10;89.00;;;;;;5059325;28;20035;-77
2021/04/20 02:33:06;;;;;;;44.97;40.45;;;6.10;88.70;;;;;;5057642;28;20059;-77
2021/04/20 02:35:32;;;;;;;45.80;41.13;;;6.10;88.90;;;;;;5065474;28;20075;-77
2021/04/20 02:37:59;;;;;;;54.25;39.83;;;6.10;89.10;;;;;;5065038;28;20114;-77
2021/04/20 02:40:29;;;;;;;121.85;44.60;;;6.00;88.70;;;;;;5064007;28;20049;-77
2021/04/20 02:42:55;;;;;;;44.42;39.83;;;6.00;88.80;;;;;;5044108;28;20037;-76
2021/04/20 02:45:22;;;;;;;168.32;48.03;;;5.80;88.90;;;;;;5046831;28;20035;-76
2021/04/20 02:47:48;;;;;;;175.02;50.95;;;5.80;89.00;;;;;;5066383;28;20056;-77
2021/04/20 02:50:18;;;;;;;86.57;46.40;;;5.60;89.30;;;;;;5053380;28;20152;-77
2021/04/20 02:52:47;;;;;;;79.50;45.42;;;5.60;89.50;;;;;;5041370;28;20475;-77
2021/04/20 02:55:13;;;;;;;89.60;48.55;;;5.50;89.50;;;;;;5052905;28;20342;-77
2021/04/20 02:57:43;;;;;;;127.13;48.83;;;5.50;89.80;;;;;;5063630;28;20127;-77
2021/04/20 03:00:12;;;;;;;89.25;51.03;;;5.50;89.80;;;;;;5056265;28;20442;-77
2021/04/20 03:02:39;;;;;;;50.38;45.15;;;5.50;90.00;;;;;;5056929;28;20483;-77
2021/04/20 03:05:15;;;;;;;50.13;45.08;;;5.60;90.10;;;;;;5075225;28;20049;-77
2021/04/20 03:07:42;;;;;;;51.35;46.13;;;5.60;90.20;;;;;;5071301;28;20047;-76
2021/04/20 03:10:09;;;;;;;71.18;45.92;;;5.70;90.10;;;;;;5072249;28;20066;-76
2021/04/20 03:12:36;;;;;;;81.03;49.17;;;5.70;90.10;;;;;;5069982;28;20032;-76
2021/04/20 03:15:04;;;;;;;52.53;42.95;;;5.70;90.00;;;;;;5061370;28;20055;-77
2021/04/20 03:17:30;;;;;;;43.55;39.28;;;5.70;89.90;;;;;;5047981;28;20554;-76
2021/04/20 03:19:56;;;;;;;99.78;43.00;;;5.60;89.40;;;;;;5057981;28;20036;-76
2021/04/20 03:22:27;;;;;;;46.13;41.10;;;5.50;89.40;;;;;;5058334;28;20036;-76
2021/04/20 03:25:23;;;;;;;59.22;38.35;;;5.50;89.40;;;;;;5053322;28;20045;-76
2021/04/20 03:27:53;;;;;;;46.72;40.65;;;5.50;89.30;;;;;;5052360;28;20036;-76
2021/04/20 03:30:22;;;;;;;46.08;38.67;;;5.50;89.40;;;;;;5063281;28;20029;-77
2021/04/20 03:33:19;;;;;;;42.83;38.40;;;5.60;89.40;;;;;;5043489;28;20033;-75
2021/04/20 03:35:55;;;;;;;47.13;40.35;;;5.60;89.30;;;;;;5047716;28;20362;-75
2021/04/20 03:38:34;;;;;;;49.80;42.10;;;5.60;89.30;;;;;;5039234;28;20029;-74
2021/04/20 03:41:07;;;;;;;43.38;38.78;;;5.60;89.40;;;;;;5051893;28;20045;-75
2021/04/20 03:43:34;;;;;;;101.20;44.53;;;5.60;89.30;;;;;;5057771;28;20623;-77
2021/04/20 03:46:05;;;;;;;58.58;42.88;;;5.70;89.40;;;;;;5069657;28;20041;-77
2021/04/20 03:48:39;;;;;;;49.03;41.65;;;5.70;89.60;;;;;;5048448;28;20112;-77
2021/04/20 03:51:15;;;;;;;43.90;39.20;;;5.70;89.70;;;;;;5041839;28;20587;-78
2021/04/20 03:53:48;;;;;;;45.30;40.40;;;5.70;89.50;;;;;;5045445;28;20052;-77
2021/04/20 03:56:15;;;;;;;83.57;40.60;;;5.70;89.40;;;;;;5038197;28;20094;-77
2021/04/20 03:58:43;;;;;;;45.17;40.53;;;5.60;89.10;;;;;;5044345;28;20116;-77
2021/04/20 04:01:11;;;;;;;44.28;39.67;;;5.60;89.30;;;;;;5037316;28;20117;-77
2021/04/20 04:03:38;;;;;;;46.35;41.17;;;5.70;89.50;;;;;;5044854;28;20029;-76
2021/04/20 04:06:06;;;;;;;54.63;40.25;;;5.70;89.60;;;;;;5047356;28;20072;-76
2021/04/20 04:08:36;;;;;;;40.95;36.65;;;5.70;89.30;;;;;;5045537;28;20032;-76
2021/04/20 04:11:05;;;;;;;43.03;38.35;;;5.70;89.20;;;;;;5055883;28;20395;-75
2021/04/20 04:13:32;;;;;;;40.75;36.45;;;5.70;89.20;;;;;;5061421;28;20028;-76
2021/04/20 04:16:03;;;;;;;44.35;36.00;;;5.70;89.00;;;;;;5057875;28;20031;-76
2021/04/20 04:18:33;;;;;;;71.25;37.80;;;5.70;89.00;;;;;;5053061;28;20403;-76
2021/04/20 04:21:06;;;;;;;38.47;34.58;;;5.50;88.80;;;;;;5061813;28;20045;-76
2021/04/20 04:23:43;;;;;;;92.38;41.72;;;5.50;89.10;;;;;;5056169;28;20029;-76
2021/04/20 04:26:14;;;;;;;40.55;36.45;;;5.40;88.80;;;;;;5061029;28;20099;-77
2021/04/20 04:28:44;;;;;;;42.30;38.00;;;5.40;89.20;;;;;;5064003;28;20059;-76
2021/04/20 04:31:10;;;;;;;50.05;43.10;;;5.40;89.50;;;;;;5061248;28;20021;-76
2021/04/20 04:33:39;;;;;;;45.00;40.10;;;5.50;89.60;;;;;;5060001;28;20036;-75
2021/04/20 04:36:08;;;;;;;43.90;38.40;;;5.50;89.60;;;;;;5063018;28;20115;-76
2021/04/20 04:38:34;;;;;;;41.60;37.40;;;5.60;89.60;;;;;;5060804;28;20528;-76
2021/04/20 04:41:00;;;;;;;42.60;38.10;;;5.60;89.50;;;;;;5054227;28;20059;-76
2021/04/20 04:43:27;;;;;;;42.50;38.05;;;5.60;89.40;;;;;;5056240;28;20507;-76
2021/04/20 04:45:57;;;;;;;60.90;37.55;;;5.60;89.40;;;;;;5056642;28;20025;-76
2021/04/20 04:48:25;;;;;;;39.25;35.25;;;5.60;89.30;;;;;;5055753;28;20046;-77
2021/04/20 04:50:52;;;;;;;41.85;37.53;;;5.40;88.80;;;;;;5051346;28;20029;-76
2021/04/20 04:53:19;;;;;;;80.50;36.55;;;5.50;89.20;;;;;;5052537;28;20032;-76
2021/04/20 04:55:45;;;;;;;44.40;36.35;;;5.40;88.80;;;;;;5038246;28;20179;-76
2021/04/20 04:58:11;;;;;;;59.80;37.47;;;5.40;88.90;;;;;;5042621;28;20162;-77
2021/04/20 05:00:38;;;;;;;48.22;37.63;;;5.40;89.00;;;;;;5037912;28;20103;-76
2021/04/20 05:03:07;;;;;;;39.63;35.22;;;5.40;89.20;;;;;;5042651;28;20029;-76
2021/04/20 05:05:36;;;;;;;49.35;37.25;;;5.50;89.00;;;;;;5041604;28;20341;-76
2021/04/20 05:08:02;;;;;;;59.42;38.47;;;5.30;88.70;;;;;;5043878;28;20033;-76
2021/04/20 05:10:28;;;;;;;40.17;33.65;;;5.40;88.90;;;;;;5047415;28;20078;-76
2021/04/20 05:12:55;;;;;;;41.72;35.90;;;5.30;88.70;;;;;;5052560;28;20078;-76
2021/04/20 05:15:23;;;;;;;40.72;36.58;;;5.40;88.80;;;;;;5053892;28;20033;-70
2021/04/20 05:17:49;;;;;;;58.58;38.53;;;5.40;88.70;;;;;;5062798;28;20028;-72
2021/04/20 05:20:20;;;;;;;50.03;37.10;;;5.40;88.30;;;;;;5060909;28;20411;-69
2021/04/20 05:22:47;;;;;;;83.28;39.08;;;5.30;88.40;;;;;;5061359;28;20100;-70
2021/04/20 05:25:17;;;;;;;40.65;36.55;;;5.30;88.50;;;;;;5062082;28;20077;-70
2021/04/20 05:27:43;;;;;;;64.82;42.33;;;5.30;88.20;;;;;;5055008;28;20041;-71
2021/04/20 05:30:10;;;;;;;44.33;35.45;;;5.30;88.20;;;;;;5061864;28;20036;-70
2021/04/20 05:32:40;;;;;;;88.28;40.50;;;5.20;88.30;;;;;;5062634;28;20056;-69
2021/04/20 05:35:08;;;;;;;86.72;37.45;;;5.30;88.20;;;;;;5063379;28;20744;-69
2021/04/20 05:37:36;;;;;;;40.58;33.42;;;5.30;88.40;;;;;;5061576;28;20021;-70
2021/04/20 05:40:15;;;;;;;52.65;34.38;;;5.20;88.20;;;;;;5063917;28;20094;-70
2021/04/20 05:42:41;;;;;;;40.05;35.95;;;5.30;88.00;;;;;;5059497;28;20367;-70
2021/04/20 05:45:09;;;;;;;50.80;36.20;;;5.30;88.00;;;;;;5060960;28;20425;-71
2021/04/20 05:47:43;;;;;;;38.20;34.20;;;5.20;88.00;;;;;;5066992;28;20457;-70
2021/04/20 05:50:29;;;;;;;80.97;42.45;;;5.20;87.90;;;;;;5052147;28;20045;-69
2021/04/20 05:52:57;;;;;;;44.92;38.15;;;5.40;88.40;;;;;;5060962;28;20032;-69
2021/04/20 05:55:23;;;;;;;41.97;37.47;;;5.40;88.20;;;;;;5061017;28;20041;-69
2021/04/20 05:57:51;;;;;;;42.35;38.05;;;5.50;88.20;;;;;;5068676;28;20020;-71
2021/04/20 06:00:19;;;;;;;43.28;35.83;;;5.60;88.00;;;;;;5062562;28;20029;-70
2021/04/20 06:02:46;;;;;;;61.17;39.20;;;5.60;87.40;;;;;;5059550;28;20372;-70
2021/04/20 06:05:14;;;;;;;48.80;39.95;;;5.70;87.80;;;;;;5062370;28;20028;-70
2021/04/20 06:07:46;;;;;;;41.08;35.67;;;5.70;86.90;;;;;;5058396;28;20025;-70
2021/04/20 06:10:13;;;;;;;61.17;38.58;;;5.70;86.80;;;;;;5055241;28;20473;-70
2021/04/20 06:12:39;;;;;;;49.38;35.22;;;5.80;87.30;;;;;;5059976;28;20475;-69
2021/04/20 06:15:07;;;;;;;41.53;34.45;;;5.90;86.90;;;;;;5057352;28;20526;-73
2021/04/20 06:17:40;;;;;;;74.38;36.35;;;5.70;85.60;;;;;;5060884;28;20518;-69
2021/04/20 06:20:08;;;;;;;41.70;37.22;;;5.70;86.50;;;;;;5054860;28;20068;-72
2021/04/20 06:22:35;;;;;;;40.70;36.33;;;5.90;87.20;;;;;;5056765;28;20125;-70
2021/04/20 06:25:01;;;;;;;36.70;32.90;;;6.10;87.10;;;;;;5055927;28;20116;-70
2021/04/20 06:27:28;;;;;;;94.03;32.85;;;6.20;86.50;;;;;;5057402;28;20201;-70
2021/04/20 06:29:54;;;;;;;42.83;33.13;;;6.20;85.20;;;;;;5052515;28;20649;-70
2021/04/20 06:32:20;;;;;;;48.60;37.28;;;6.40;85.70;;;;;;5054961;28;20121;-70
2021/04/20 06:34:46;;;;;;;39.47;33.25;;;6.50;86.00;;;;;;5042345;28;20033;-72
2021/04/20 06:37:12;;;;;;;62.95;33.80;;;6.50;85.10;;;;;;5053223;28;20035;-70
2021/04/20 06:39:38;;;;;;;49.47;34.22;;;6.60;84.80;;;;;;5054022;28;20050;-70
2021/04/20 06:42:10;;;;;;;60.40;35.65;;;6.60;84.80;;;;;;5044229;28;20045;-69
2021/04/20 06:44:56;;;;;;;62.22;36.67;;;6.70;84.90;;;;;;5041664;28;20048;-69
2021/04/20 06:47:52;;;;;;;42.70;36.25;;;6.60;84.70;;;;;;5054882;28;20082;-75
2021/04/20 06:50:22;;;;;;;39.40;35.15;;;6.80;85.90;;;;;;5036901;28;20105;-75
2021/04/20 06:53:22;;;;;;;51.70;32.03;;;7.00;85.30;;;;;;5057356;28;20036;-78
2021/04/20 06:56:12;;;;;;;59.85;35.13;;;6.80;83.30;;;;;;5055343;28;20120;-78
2021/04/20 06:59:12;;;;;;;58.53;34.42;;;6.70;83.60;;;;;;5054787;28;20061;-75
2021/04/20 07:01:45;;;;;;;45.20;35.75;;;6.70;84.10;;;;;;5056336;28;20380;-78
2021/04/20 07:04:23;;;;;;;46.15;35.53;;;6.70;84.70;;;;;;5050626;28;20047;-75
2021/04/20 07:07:05;;;;;;;40.58;34.20;;;6.80;85.10;;;;;;5056968;28;20969;-75
2021/04/20 07:09:33;;;;;;;63.45;34.80;;;7.10;85.30;;;;;;5056201;28;20132;-73
2021/04/20 07:12:01;;;;;;;35.63;31.92;;;7.00;84.10;;;;;;5059617;28;20040;-73
2021/04/20 07:14:44;;;;;;;48.92;32.60;;;7.10;84.10;;;;;;5038178;28;20468;-75
2021/04/20 07:17:10;;;;;;;38.13;34.25;;;7.10;83.60;;;;;;5048162;28;20036;-76
2021/04/20 07:20:16;;;;;;;46.47;35.08;;;7.20;85.10;;;;;;5055386;28;20129;-75
2021/04/20 07:22:56;;;;;;;;;;;7.20;84.50;;;;;;5056856;28;20028;-73
2021/04/20 07:25:40;;;;;;;43.63;34.80;;;7.40;84.40;;;;;;5057972;28;19918;-74
2021/04/20 07:28:25;;;;;;;39.50;35.08;;;7.60;84.50;;;;;;5063585;28;20037;-76
2021/04/20 07:31:06;;;;;;;38.28;32.83;;;7.60;83.60;;;;;;5055504;28;20467;-75
2021/04/20 07:34:00;;;;;;;44.58;35.13;;;7.70;83.40;;;;;;5040945;28;20044;-76
2021/04/20 07:36:46;;;;;;;46.17;39.03;;;7.70;82.90;;;;;;5035488;28;20033;-75
2021/04/20 07:39:19;;;;;;;44.03;39.22;;;7.70;83.30;;;;;;5039858;28;20425;-75
2021/04/20 07:42:06;;;;;;;43.53;38.80;;;7.90;84.10;;;;;;5040963;28;20481;-76
2021/04/20 07:44:32;;;;;;;48.17;41.50;;;8.00;83.90;;;;;;5062276;28;20127;-76
2021/04/20 07:47:03;;;;;;;52.53;46.47;;;8.10;83.20;;;;;;5046403;28;20065;-76
2021/04/20 07:49:48;;;;;;;53.28;47.15;;;8.30;83.00;;;;;;5037205;28;20037;-76
2021/04/20 07:52:22;;;;;;;53.55;45.47;;;8.50;83.00;;;;;;5033839;28;20049;-75
2021/04/20 07:55:03;;;;;;;;;;;8.80;82.30;;;;;;5037187;28;20030;-73
2021/04/20 07:57:40;;;;;;;53.78;44.95;;;8.90;80.40;;;;;;5036379;28;20039;-76
2021/04/20 08:00:16;;;;;;;63.15;50.58;;;9.00;80.30;;;;;;5038154;28;20052;-75
2021/04/20 08:02:50;;;;;;;64.32;52.25;;;8.90;80.60;;;;;;5039363;28;20051;-76
2021/04/20 08:05:27;;;;;;;64.10;52.38;;;8.80;81.60;;;;;;5033753;28;20076;-75
2021/04/20 08:08:36;;;;;;;70.30;54.92;;;9.00;81.60;;;;;;5054233;28;20033;-76
2021/04/20 08:11:09;;;;;;;64.90;52.03;;;9.20;81.40;;;;;;5046489;28;20041;-73
2021/04/20 08:13:47;;;;;;;66.90;52.58;;;9.40;81.10;;;;;;5043401;28;20769;-72
2021/04/20 08:16:34;;;;;;;62.92;49.67;;;9.70;80.20;;;;;;5055484;28;20031;-75
2021/04/20 08:19:09;;;;;;;63.15;50.70;;;9.80;80.40;;;;;;5058031;28;20043;-74
2021/04/20 08:21:39;;;;;;;56.72;47.63;;;10.00;79.60;;;;;;5055664;28;20605;-74
2021/04/20 08:24:11;;;;;;;57.97;49.28;;;10.10;79.00;;;;;;5055970;28;20033;-75
2021/04/20 08:26:43;;;;;;;57.15;48.60;;;10.30;78.30;;;;;;5057737;28;20371;-74
2021/04/20 08:29:15;;;;;;;60.88;51.33;;;10.40;77.70;;;;;;5039650;28;20053;-75
2021/04/20 08:31:54;;;;;;;63.80;52.58;;;10.70;78.10;;;;;;5059011;28;20037;-75
2021/04/20 08:34:27;;;;;;;63.50;52.78;;;10.80;77.10;;;;;;5060293;28;20032;-74
2021/04/20 08:37:06;;;;;;;63.38;54.45;;;11.10;76.40;;;;;;5058872;28;20625;-75
2021/04/20 08:40:06;;;;;;;60.80;52.38;;;11.20;75.30;;;;;;5061333;28;20502;-75
2021/04/20 08:43:17;;;;;;;74.00;57.15;;;11.20;76.90;;;;;;5048528;28;20051;-74
2021/04/20 08:45:59;;;;;;;71.72;60.30;;;11.10;75.10;;;;;;5048685;28;20468;-75
2021/04/20 08:48:53;;;;;;;73.22;60.30;;;11.40;76.50;;;;;;5055447;28;20045;-74
2021/04/20 08:51:35;;;;;;;74.25;60.25;;;11.50;75.10;;;;;;5039270;28;20032;-76
2021/04/20 08:54:39;;;;;;;78.28;62.90;;;11.60;75.00;;;;;;5036883;28;20041;-75
2021/04/20 08:57:33;;;;;;;77.70;65.35;;;11.60;76.00;;;;;;5036216;28;20037;-75
2021/04/20 09:00:19;;;;;;;82.10;66.68;;;11.60;76.70;;;;;;5036708;28;20592;-75
2021/04/20 09:02:57;;;;;;;85.50;70.53;;;11.80;76.30;;;;;;5038830;28;20040;-73
2021/04/20 09:05:31;;;;;;;85.05;70.90;;;11.90;76.30;;;;;;5038426;28;20041;-76
2021/04/20 09:08:03;;;;;;;90.20;71.83;;;12.10;76.30;;;;;;5037445;28;20404;-71
2021/04/20 09:10:41;;;;;;;90.40;75.03;;;12.10;75.40;;;;;;5043657;28;20485;-71
2021/04/20 09:13:20;;;;;;;94.68;76.85;;;12.20;75.60;;;;;;5044830;28;20124;-71
2021/04/20 09:16:09;;;;;;;98.80;82.53;;;12.30;74.90;;;;;;5056218;28;22190;-71
2021/04/20 09:18:44;;;;;;;96.38;79.25;;;12.30;74.00;;;;;;5043069;28;20037;-71
2021/04/20 09:21:53;;;;;;;100.75;80.20;;;12.60;74.00;;;;;;5039348;28;20111;-70
2021/04/20 09:24:25;;;;;;;94.38;75.13;;;12.60;73.80;;;;;;5047313;28;20380;-70
2021/04/20 09:26:54;;;;;;;93.53;76.38;;;12.90;73.20;;;;;;5057144;28;20035;-70
2021/04/20 09:29:28;;;;;;;93.40;75.10;;;13.10;73.00;;;;;;5056671;28;20041;-71
2021/04/20 09:32:04;;;;;;;97.70;76.78;;;13.00;74.20;;;;;;5057680;28;20361;-73
2021/04/20 09:34:38;;;;;;;90.97;74.95;;;13.30;73.50;;;;;;5037999;28;20036;-74
2021/04/20 09:37:05;;;;;;;88.70;73.80;;;13.50;72.10;;;;;;5055123;28;20481;-73
2021/04/20 09:39:36;;;;;;;93.35;73.97;;;13.50;71.80;;;;;;5052861;28;20504;-71
2021/04/20 09:42:04;;;;;;;90.68;72.00;;;13.60;71.00;;;;;;5053974;28;20048;-72
2021/04/20 09:44:53;;;;;;;94.72;73.43;;;13.70;70.90;;;;;;5054371;28;20033;-69
2021/04/20 09:47:47;;;;;;;89.72;68.57;;;13.60;70.70;;;;;;5047187;28;22328;-69
2021/04/20 09:50:19;;;;;;;84.30;68.43;;;14.10;71.30;;;;;;5055621;28;20033;-69
2021/04/20 09:53:00;;;;;;;93.38;71.65;;;14.20;68.50;;;;;;5059094;28;20063;-70
2021/04/20 09:55:34;;;;;;;91.63;70.57;;;14.30;68.10;;;;;;5040707;28;20100;-70
2021/04/20 09:58:02;;;;;;;84.63;68.38;;;14.60;68.00;;;;;;5055580;28;20028;-70
2021/04/20 10:00:28;;;;;;;91.05;69.40;;;14.70;66.80;;;;;;5054799;28;20127;-69
2021/04/20 10:03:32;;;;;;;82.13;66.70;;;15.00;66.90;;;;;;5058798;28;20422;-72
2021/04/20 10:06:37;;;;;;;87.75;68.32;;;15.30;64.50;;;;;;5037541;28;20420;-72
2021/04/20 10:09:34;;;;;;;86.95;67.40;;;15.10;63.60;;;;;;5056265;28;20448;-74
2021/04/20 10:12:21;;;;;;;83.97;65.68;;;15.00;63.50;;;;;;5010795;28;20464;-69
2021/04/20 10:15:12;;;;;;;84.10;69.10;;;15.30;62.60;;;;;;5041298;28;20041;-72
2021/04/20 10:17:56;;;;;;;77.38;61.60;;;15.40;62.10;;;;;;5054334;28;20059;-70
2021/04/20 10:20:43;;;;;;;79.93;61.30;;;15.80;61.40;;;;;;5056554;28;20534;-70
2021/04/20 10:23:20;;;;;;;78.47;63.05;;;15.90;60.00;;;;;;5054787;28;20062;-70
2021/04/20 10:25:58;;;;;;;81.35;65.43;;;16.10;60.50;;;;;;5055886;28;20505;-73
2021/04/20 10:28:46;;;;;;;74.85;61.17;;;16.30;58.90;;;;;;5054238;28;20044;-71
2021/04/20 10:31:19;;;;;;;74.68;62.60;;;16.30;60.10;;;;;;5053959;28;20049;-70
2021/04/20 10:33:50;;;;;;;68.78;58.55;;;16.30;59.00;;;;;;5054791;28;20129;-74
2021/04/20 10:36:20;;;;;;;69.35;58.58;;;16.50;57.70;;;;;;5053181;28;20071;-74
2021/04/20 10:38:46;;;;;;;65.95;56.65;;;16.30;58.60;;;;;;5053780;28;20082;-71
2021/04/20 10:41:25;;;;;;;63.67;56.67;;;16.20;57.90;;;;;;5040972;28;20037;-71
2021/04/20 10:43:53;;;;;;;69.18;57.08;;;15.80;58.70;;;;;;5034214;28;20132;-70
2021/04/20 10:46:24;;;;;;;63.35;55.08;;;16.10;58.20;;;;;;5034393;28;20033;-73
2021/04/20 10:48:52;;;;;;;68.25;56.38;;;16.00;58.60;;;;;;5035049;28;20037;-70
2021/04/20 10:51:28;;;;;;;64.38;57.33;;;16.10;56.60;;;;;;5033687;28;20029;-74
2021/04/20 10:53:55;;;;;;;64.93;57.45;;;15.60;55.30;;;;;;5033711;28;20041;-69
2021/04/20 10:56:22;;;;;;;67.75;58.35;;;15.60;56.00;;;;;;5032473;28;20045;-73
2021/04/20 10:58:50;;;;;;;63.58;55.05;;;15.90;55.80;;;;;;5034355;28;20037;-70
2021/04/20 11:01:20;;;;;;;62.90;54.10;;;16.40;56.00;;;;;;5032179;28;20033;-72
2021/04/20 11:03:51;;;;;;;66.32;56.15;;;16.80;54.60;;;;;;5037681;28;20057;-73
2021/04/20 11:06:54;;;;;;;62.25;53.42;;;17.10;53.80;;;;;;5038769;28;20080;-77
2021/04/20 11:09:30;;;;;;;59.42;50.88;;;17.30;52.10;;;;;;5036225;28;20041;-72
2021/04/20 11:11:56;;;;;;;55.70;48.70;;;17.50;52.10;;;;;;5042634;28;20037;-72
2021/04/20 11:14:42;;;;;;;60.13;51.65;;;17.90;51.50;;;;;;5044753;28;20041;-69
2021/04/20 11:17:42;;;;;;;50.83;44.33;;;18.20;49.90;;;;;;5056193;28;20032;-71
2021/04/20 11:20:44;;;;;;;42.95;38.33;;;18.30;48.50;;;;;;5054740;28;20412;-69
2021/04/20 11:23:09;;;;;;;44.03;39.13;;;18.20;48.20;;;;;;5053147;28;20120;-73
2021/04/20 11:25:37;;;;;;;56.95;47.97;;;18.10;48.40;;;;;;5057261;28;20036;-70
2021/04/20 11:28:14;;;;;;;53.72;46.90;;;17.50;49.40;;;;;;5058564;28;20550;-75
2021/04/20 11:30:51;;;;;;;57.05;47.15;;;17.00;51.80;;;;;;5059652;28;20029;-70
2021/04/20 11:33:32;;;;;;;50.80;45.47;;;17.40;51.60;;;;;;5060870;28;20032;-69
2021/04/20 11:36:01;;;;;;;51.22;44.33;;;17.60;50.10;;;;;;5055073;28;20368;-70
2021/04/20 11:38:27;;;;;;;51.03;45.28;;;18.20;49.10;;;;;;5067844;28;20496;-73
2021/04/20 11:41:02;;;;;;;45.17;38.40;;;18.60;47.10;;;;;;5070097;28;20048;-70
2021/04/20 11:43:29;;;;;;;34.47;30.75;;;18.90;47.20;;;;;;5065919;28;20141;-74
2021/04/20 11:45:57;;;;;;;34.65;29.85;;;19.00;44.60;;;;;;5069030;28;20064;-72
2021/04/20 11:48:29;;;;;;;38.08;32.53;;;19.10;43.60;;;;;;5064227;28;20029;-71
2021/04/20 11:50:57;;;;;;;36.40;31.05;;;19.10;43.40;;;;;;5046603;28;20053;-71
2021/04/20 11:53:24;;;;;;;34.47;30.77;;;19.50;43.20;;;;;;5041672;28;20480;-73
2021/04/20 11:55:56;;;;;;;51.80;45.60;;;19.60;43.60;;;;;;5046788;28;20132;-73
2021/04/20 11:58:35;;;;;;;52.45;45.58;;;19.40;45.00;;;;;;5039661;28;20048;-70
2021/04/20 12:01:21;;;;;;;49.63;43.90;;;18.90;47.10;;;;;;5046439;28;20047;-73
2021/04/20 12:03:54;;;;;;;43.80;38.95;;;18.70;47.50;;;;;;5042814;28;20033;-71
2021/04/20 12:06:20;;;;;;;51.10;45.55;;;19.00;45.80;;;;;;5039188;28;20361;-72
2021/04/20 12:08:54;;;;;;;51.35;45.25;;;19.10;46.40;;;;;;5040270;28;20091;-72
2021/04/20 12:11:23;;;;;;;47.53;42.42;;;19.10;47.90;;;;;;5046278;28;20048;-71
2021/04/20 12:13:51;;;;;;;47.53;42.22;;;19.10;47.10;;;;;;5044166;28;20493;-71
2021/04/20 12:16:17;;;;;;;47.47;42.05;;;19.00;47.60;;;;;;5038489;28;20082;-71
2021/04/20 12:18:47;;;;;;;51.15;43.15;;;18.50;46.60;;;;;;5042935;28;20034;-71
2021/04/20 12:21:38;;;;;;;46.85;42.05;;;18.50;47.10;;;;;;5043585;28;20477;-71
2021/04/20 12:24:06;;;;;;;46.35;40.45;;;18.10;48.20;;;;;;5044833;28;20040;-74
2021/04/20 12:26:33;;;;;;;45.60;40.30;;;18.00;47.00;;;;;;5039181;28;20082;-72
2021/04/20 12:29:02;;;;;;;44.38;38.65;;;18.20;48.00;;;;;;5041603;28;20797;-73
2021/04/20 12:31:30;;;;;;;44.55;37.70;;;18.10;45.80;;;;;;5045471;28;20160;-72
2021/04/20 12:33:56;;;;;;;40.65;35.65;;;18.10;48.40;;;;;;5051574;28;20468;-72
2021/04/20 12:36:31;;;;;;;42.15;37.17;;;18.10;47.70;;;;;;5061639;28;20080;-72
2021/04/20 12:39:04;;;;;;;43.00;34.67;;;18.00;46.50;;;;;;5064776;28;20052;-72
2021/04/20 12:41:32;;;;;;;42.63;36.15;;;17.80;46.60;;;;;;5049432;28;20553;-72
2021/04/20 12:44:02;;;;;;;39.35;35.03;;;17.50;47.40;;;;;;5054176;28;20067;-72
2021/04/20 12:46:32;;;;;;;40.65;34.83;;;17.80;48.00;;;;;;5062234;28;20113;-71
2021/04/20 12:49:01;;;;;;;35.28;29.83;;;17.90;46.80;;;;;;5067792;28;20037;-72
2021/04/20 12:51:30;;;;;;;36.28;32.20;;;17.90;44.00;;;;;;5066567;28;20048;-71
2021/04/20 12:53:59;;;;;;;42.00;35.38;;;17.60;45.80;;;;;;5061963;28;20037;-72
2021/04/20 12:56:29;;;;;;;37.22;33.17;;;17.50;47.10;;;;;;5062725;28;20040;-72
2021/04/20 12:58:58;;;;;;;38.17;33.75;;;18.10;46.70;;;;;;5052097;28;20052;-72
2021/04/20 13:01:24;;;;;;;35.58;31.77;;;18.60;46.00;;;;;;5065476;28;20068;-75